Time;durP1;ratioP1;P1;durP2;ratioP2;P2;SDS_P1;SDS_P2;PMS_P1;PMS_P2;Temp;Humidity;BMP_temperature;BMP_pressure;BME280_temperature;BME280_humidity;BME280_pressure;Samples;Min_cycle;Max_cycle;Signal;HPM_P1;HPM_P2
2022/11/06 00:03:52;;;;;;;11.00;6.80;;;;;;;12.21;65.62;99300.45;223072;1254;139502;-64
2022/11/06 00:08:58;;;;;;;12.20;7.20;;;;;;;12.20;65.52;99309.36;223202;1257;139564;-65
2022/11/06 00:14:02;;;;;;;10.10;6.80;;;;;;;12.17;65.56;99315.09;223144;1253;140347;-63
2022/11/06 00:19:06;;;;;;;12.90;8.10;;;;;;;12.13;65.68;99315.36;223300;1257;139385;-67
2022/11/06 00:24:11;;;;;;;17.60;8.10;;;;;;;12.11;65.80;99317.66;223090;1257;140610;-64
2022/11/06 00:29:14;;;;;;;12.70;8.50;;;;;;;12.06;65.60;99324.15;223227;1251;140566;-64
2022/11/06 00:34:17;;;;;;;12.70;7.90;;;;;;;12.01;65.79;99331.89;223199;1247;139910;-65
2022/11/06 00:39:20;;;;;;;10.70;7.20;;;;;;;12.04;65.85;99333.54;223786;1249;140710;-62
2022/11/06 00:44:23;;;;;;;16.40;7.40;;;;;;;12.10;65.79;99323.38;223248;1257;140772;-63
2022/11/06 00:49:27;;;;;;;14.60;7.30;;;;;;;12.13;65.96;99322.98;223076;1256;139778;-66
2022/11/06 00:54:30;;;;;;;14.70;8.30;;;;;;;12.15;65.61;99323.20;223151;1251;139819;-65
2022/11/06 00:59:33;;;;;;;15.80;7.70;;;;;;;12.14;65.67;99323.43;223316;1251;140050;-68
2022/11/06 01:04:36;;;;;;;17.50;7.60;;;;;;;12.09;65.44;99331.77;223164;1255;140498;-67
2022/11/06 01:09:39;;;;;;;13.20;7.70;;;;;;;12.03;65.53;99334.80;223258;1257;139424;-69
2022/11/06 01:14:43;;;;;;;16.10;6.90;;;;;;;11.99;65.40;99335.23;223209;1257;139693;-69
2022/11/06 01:19:46;;;;;;;13.00;7.60;;;;;;;11.98;65.70;99336.05;223739;1250;140050;-70
2022/11/06 01:24:49;;;;;;;15.40;7.70;;;;;;;11.99;65.43;99336.65;223126;1253;141183;-66
2022/11/06 01:29:52;;;;;;;15.80;7.10;;;;;;;12.03;65.57;99338.34;223895;1255;139880;-67
2022/11/06 01:34:55;;;;;;;13.00;7.10;;;;;;;12.05;65.50;99335.41;223881;1240;139335;-66
2022/11/06 01:39:58;;;;;;;14.40;7.20;;;;;;;12.04;65.62;99335.63;223981;1249;140503;-66
2022/11/06 01:45:14;;;;;;;15.00;7.60;;;;;;;12.03;65.48;99330.90;223865;1247;140999;-71
2022/11/06 01:50:18;;;;;;;17.60;7.10;;;;;;;11.99;65.25;99335.79;223486;1257;139899;-67
2022/11/06 01:55:26;;;;;;;15.90;7.00;;;;;;;11.93;65.35;99338.80;223849;1250;140240;-64
2022/11/06 02:00:31;;;;;;;13.80;7.20;;;;;;;11.89;65.21;99341.95;223294;1256;140198;-66
2022/11/06 02:05:35;;;;;;;14.10;7.40;;;;;;;11.84;65.22;99341.69;223877;1249;139087;-63
2022/11/06 02:10:38;;;;;;;12.70;6.20;;;;;;;11.84;65.51;99340.81;223160;1263;140623;-68
2022/11/06 02:15:56;;;;;;;16.80;6.90;;;;;;;11.90;65.26;99342.59;223208;1256;140152;-67
2022/11/06 02:21:17;;;;;;;14.60;7.20;;;;;;;11.92;65.37;99339.45;224001;1247;140081;-68
2022/11/06 02:26:44;;;;;;;12.70;6.50;;;;;;;11.91;65.29;99339.86;223365;1257;139636;-69
2022/11/06 02:31:51;;;;;;;10.30;6.50;;;;;;;11.87;65.15;99341.67;223236;1249;139594;-74
2022/11/06 02:37:06;;;;;;;14.90;6.70;;;;;;;11.85;65.26;99355.69;223151;1256;139473;-73
2022/11/06 02:42:12;;;;;;;16.20;7.30;;;;;;;11.82;65.22;99357.06;223926;1250;138883;-74
2022/11/06 02:47:17;;;;;;;;;;;;;;;11.78;65.14;99362.13;223163;1257;140609;-68
2022/11/06 02:52:30;;;;;;;15.40;7.10;;;;;;;11.70;65.22;99366.34;224081;1241;126837;-70
2022/11/06 02:57:37;;;;;;;15.90;6.70;;;;;;;11.66;65.36;99370.00;223285;1257;140096;-71
2022/11/06 03:02:48;;;;;;;15.50;7.10;;;;;;;11.69;65.39;99369.46;223394;1248;139877;-64
2022/11/06 03:08:01;;;;;;;11.90;6.80;;;;;;;11.74;65.28;99368.40;223158;1249;140388;-61
2022/11/06 03:13:46;;;;;;;16.10;7.40;;;;;;;11.78;65.68;99364.95;223363;1249;140010;-66
2022/11/06 03:19:03;;;;;;;13.00;7.20;;;;;;;11.77;65.32;99359.17;223246;1248;140400;-66
2022/11/06 03:24:18;;;;;;;17.90;7.50;;;;;;;11.76;65.35;99359.59;223166;1256;140598;-69
2022/11/06 03:29:33;;;;;;;14.00;7.00;;;;;;;11.72;65.43;99356.61;223195;1248;140091;-66
2022/11/06 03:34:51;;;;;;;18.50;7.90;;;;;;;11.70;65.36;99354.83;223252;1257;140087;-66
2022/11/06 03:40:01;;;;;;;14.90;7.20;;;;;;;11.67;65.33;99356.59;223904;1243;139313;-71
2022/11/06 03:45:13;;;;;;;20.20;6.80;;;;;;;11.64;65.19;99361.39;223910;1246;140531;-73
2022/11/06 03:50:21;;;;;;;19.10;7.90;;;;;;;11.64;65.23;99374.72;223248;1258;141030;-66
2022/11/06 03:55:29;;;;;;;14.80;7.70;;;;;;;11.67;65.23;99388.94;223088;1248;141994;-67
2022/11/06 04:00:35;;;;;;;15.70;7.80;;;;;;;11.69;65.17;99392.05;223317;1253;139393;-67
2022/11/06 04:05:44;;;;;;;;;;;;;;;11.68;65.27;99391.17;223471;1251;139850;-72
2022/11/06 04:16:13;;;;;;;14.00;7.10;;;;;;;11.60;65.18;99394.52;223309;1247;139659;-65
2022/11/06 04:21:53;;;;;;;13.80;8.20;;;;;;;11.55;65.05;99393.56;223944;1250;139493;-70
2022/11/06 04:27:08;;;;;;;14.50;7.60;;;;;;;11.52;65.17;99402.48;223214;1240;139835;-69
2022/11/06 04:32:35;;;;;;;15.40;7.40;;;;;;;11.49;65.06;99405.32;223445;1257;139502;-70
2022/11/06 04:38:06;;;;;;;16.60;7.60;;;;;;;11.52;65.29;99404.42;223230;1251;141499;-68
2022/11/06 04:43:29;;;;;;;18.40;6.60;;;;;;;11.57;65.15;99407.30;223286;1257;140600;-70
2022/11/06 04:48:32;;;;;;;12.10;7.20;;;;;;;11.61;65.17;99405.11;223257;1257;140034;-71
2022/11/06 04:53:36;;;;;;;19.40;7.30;;;;;;;11.61;64.98;99410.09;223263;1257;140076;-68
2022/11/06 04:58:39;;;;;;;13.10;7.30;;;;;;;11.58;64.78;99416.11;223165;1253;140313;-66
2022/11/06 05:03:42;;;;;;;13.50;6.70;;;;;;;11.53;64.66;99416.99;223280;1257;139890;-70
2022/11/06 05:08:45;;;;;;;14.10;7.30;;;;;;;11.49;64.66;99422.52;223317;1253;140018;-67
2022/11/06 05:13:48;;;;;;;13.80;7.20;;;;;;;11.46;64.85;99422.00;223211;1246;139375;-69
2022/11/06 05:18:51;;;;;;;13.20;6.60;;;;;;;11.41;64.68;99420.17;223291;1262;139686;-65
2022/11/06 05:23:54;;;;;;;16.00;6.70;;;;;;;11.38;64.69;99413.77;223311;1247;139459;-64
2022/11/06 05:28:58;;;;;;;14.30;7.10;;;;;;;11.41;64.71;99423.57;223218;1257;140307;-67
2022/11/06 05:34:02;;;;;;;16.50;7.00;;;;;;;11.42;64.63;99419.95;224061;1252;140865;-71
2022/11/06 05:39:05;;;;;;;14.40;6.90;;;;;;;11.45;64.61;99420.14;223227;1257;140271;-65
2022/11/06 05:44:08;;;;;;;16.80;6.80;;;;;;;11.44;64.73;99425.17;224019;1242;139662;-64
2022/11/06 05:49:11;;;;;;;18.50;7.30;;;;;;;11.45;64.79;99434.35;223178;1253;140215;-68
2022/11/06 05:54:15;;;;;;;16.50;6.80;;;;;;;11.42;64.59;99440.75;223342;1257;139197;-69
2022/11/06 05:59:17;;;;;;;12.20;7.20;;;;;;;11.39;64.62;99443.77;223863;1255;140760;-66
2022/11/06 06:04:20;;;;;;;16.10;6.80;;;;;;;11.36;64.49;99449.59;223945;1245;139312;-66
2022/11/06 06:09:23;;;;;;;63.70;43.20;;;;;;;11.34;64.71;99455.02;223875;1247;140054;-66
2022/11/06 06:14:26;;;;;;;22.90;7.20;;;;;;;11.38;64.86;99465.31;223388;1254;140343;-65
2022/11/06 06:19:29;;;;;;;15.80;7.10;;;;;;;11.44;64.51;99466.20;223242;1251;140084;-63
2022/11/06 06:24:32;;;;;;;17.30;6.60;;;;;;;11.45;64.40;99474.52;223905;1245;139818;-64
2022/11/06 06:29:35;;;;;;;14.90;7.20;;;;;;;11.43;64.18;99477.79;223277;1246;140978;-65
2022/11/06 06:34:38;;;;;;;96.90;64.10;;;;;;;11.46;64.49;99473.15;223264;1257;140352;-64
2022/11/06 06:39:41;;;;;;;16.40;7.00;;;;;;;11.53;64.28;99475.76;223252;1260;139332;-68
2022/11/06 06:44:45;;;;;;;22.00;8.10;;;;;;;11.54;64.29;99473.42;223311;1261;140092;-67
2022/11/06 06:49:48;;;;;;;15.60;6.50;;;;;;;11.51;64.32;99474.65;222957;1247;139796;-68
2022/11/06 06:54:54;;;;;;;13.90;7.20;;;;;;;11.48;64.27;99488.89;223198;1257;140155;-66
2022/11/06 06:59:57;;;;;;;;;;;;;;;11.44;64.20;99489.98;223296;1253;139242;-70
2022/11/06 07:05:00;;;;;;;12.10;6.20;;;;;;;11.41;64.23;99492.33;223418;1253;125725;-67
2022/11/06 07:10:03;;;;;;;15.10;7.10;;;;;;;11.39;64.27;99497.08;223156;1257;139727;-67
2022/11/06 07:15:07;;;;;;;16.40;7.20;;;;;;;11.37;64.22;99502.13;223242;1257;142443;-66
2022/11/06 07:20:10;;;;;;;117.20;78.40;;;;;;;11.42;64.26;99499.02;223420;1258;140089;-68
2022/11/06 07:25:13;;;;;;;16.10;7.40;;;;;;;11.53;64.24;99494.80;223235;1256;140420;-65
2022/11/06 07:30:16;;;;;;;16.90;7.30;;;;;;;11.60;64.02;99488.90;223215;1251;139724;-65
2022/11/06 07:35:19;;;;;;;14.40;6.70;;;;;;;11.65;64.00;99480.61;223353;1258;140561;-70
2022/11/06 07:40:22;;;;;;;17.80;7.30;;;;;;;11.71;64.01;99475.98;223294;1257;140012;-70
2022/11/06 07:45:25;;;;;;;16.00;7.60;;;;;;;11.74;64.08;99473.27;223125;1254;139881;-67
2022/11/06 07:50:28;;;;;;;63.90;40.00;;;;;;;11.80;64.32;99484.30;223320;1258;141245;-70
2022/11/06 07:55:31;;;;;;;16.00;8.70;;;;;;;11.86;64.35;99478.62;223191;1257;140259;-62
2022/11/06 08:00:48;;;;;;;17.30;7.30;;;;;;;11.90;63.97;99469.02;223282;1257;140599;-70
2022/11/06 08:05:51;;;;;;;12.80;7.20;;;;;;;11.89;63.92;99473.85;223265;1255;139686;-67
2022/11/06 08:10:54;;;;;;;13.90;7.00;;;;;;;11.89;63.98;99477.78;223972;1251;139474;-67
2022/11/06 08:16:09;;;;;;;67.30;45.30;;;;;;;11.99;64.00;99479.64;223185;1254;140233;-70
2022/11/06 08:21:12;;;;;;;14.60;7.70;;;;;;;12.15;64.33;99473.69;223318;1256;140786;-67
2022/11/06 08:26:15;;;;;;;18.20;7.60;;;;;;;12.22;63.97;99478.94;223355;1250;139837;-67
2022/11/06 08:31:19;;;;;;;17.00;8.00;;;;;;;12.23;63.73;99478.20;223221;1253;139526;-67
2022/11/06 08:36:22;;;;;;;26.50;14.40;;;;;;;12.24;63.71;99474.89;223211;1256;139293;-62
2022/11/06 08:41:33;;;;;;;16.60;7.90;;;;;;;12.26;63.68;99474.23;223120;1263;139901;-68
2022/11/06 08:46:36;;;;;;;21.50;8.00;;;;;;;12.29;63.79;99473.66;224018;1247;139416;-65
2022/11/06 08:51:44;;;;;;;17.10;7.90;;;;;;;12.35;63.82;99468.19;223923;1253;140353;-65
2022/11/06 08:56:47;;;;;;;13.30;7.70;;;;;;;12.40;63.60;99469.31;223438;1257;140317;-67
2022/11/06 09:01:50;;;;;;;16.20;8.10;;;;;;;12.45;63.64;99471.10;223953;1248;139888;-70
2022/11/06 09:06:55;;;;;;;15.70;8.50;;;;;;;12.50;63.50;99472.05;223967;1251;139934;-71
2022/11/06 09:12:00;;;;;;;67.60;39.30;;;;;;;12.53;63.53;99471.30;223176;1253;140893;-66
2022/11/06 09:17:03;;;;;;;16.20;8.50;;;;;;;12.65;63.55;99467.04;223335;1257;140444;-67
2022/11/06 09:22:07;;;;;;;16.10;8.00;;;;;;;12.74;63.57;99465.50;223220;1263;141274;-78
2022/11/06 09:27:10;;;;;;;13.40;7.40;;;;;;;12.82;63.38;99466.97;223107;1255;139598;-71
2022/11/06 09:32:13;;;;;;;18.60;9.10;;;;;;;12.89;63.13;99467.06;223230;1248;139933;-69
2022/11/06 09:37:16;;;;;;;17.90;8.90;;;;;;;12.94;63.08;99466.19;223343;1253;141279;-66
2022/11/06 09:42:48;;;;;;;16.80;8.60;;;;;;;12.99;63.03;99467.09;223136;1257;140577;-65
2022/11/06 09:48:01;;;;;;;15.50;8.60;;;;;;;12.99;62.90;99475.99;223568;1241;140123;-66
2022/11/06 09:53:14;;;;;;;16.60;8.00;;;;;;;12.97;62.69;99473.27;223236;1256;139975;-68
2022/11/06 09:58:27;;;;;;;16.00;8.60;;;;;;;12.93;62.89;99469.98;223996;1247;139664;-67
2022/11/06 10:04:01;;;;;;;15.00;8.60;;;;;;;12.89;62.86;99468.48;223227;1257;139734;-65
2022/11/06 10:09:05;;;;;;;17.00;9.10;;;;;;;12.84;63.06;99469.69;223194;1257;139383;-67
2022/11/06 10:14:56;;;;;;;52.00;37.20;;;;;;;12.80;62.78;99463.36;224007;1253;139656;-64
2022/11/06 10:20:17;;;;;;;16.90;9.40;;;;;;;12.80;63.15;99459.81;224087;1251;151969;-66
2022/11/06 10:25:49;;;;;;;15.70;8.20;;;;;;;12.90;63.00;99457.56;223938;1247;140436;-66
2022/11/06 10:31:24;;;;;;;15.20;8.50;;;;;;;12.92;63.12;99449.94;223212;1250;139260;-65
2022/11/06 10:36:58;;;;;;;16.80;9.40;;;;;;;12.93;62.95;99442.77;223062;1251;139596;-66
2022/11/06 10:42:09;;;;;;;16.60;8.40;;;;;;;12.87;62.80;99439.04;224007;1250;139344;-66
2022/11/06 10:47:21;;;;;;;17.10;9.40;;;;;;;12.81;62.70;99429.99;223972;1245;141404;-64
2022/11/06 10:52:43;;;;;;;13.60;8.80;;;;;;;12.77;62.86;99422.60;223912;1244;140380;-67
2022/11/06 10:57:56;;;;;;;14.50;9.20;;;;;;;12.74;62.74;99420.13;223239;1257;139995;-71
2022/11/06 11:03:02;;;;;;;18.90;9.70;;;;;;;12.69;62.41;99411.76;223283;1255;139899;-64
2022/11/06 11:08:25;;;;;;;18.00;10.10;;;;;;;12.64;62.81;99410.12;223964;1240;142137;-66
2022/11/06 11:13:29;;;;;;;19.60;9.20;;;;;;;12.62;62.90;99402.25;223188;1257;141179;-68
2022/11/06 11:18:33;;;;;;;17.10;9.10;;;;;;;12.66;62.87;99402.46;223445;1246;140494;-66
2022/11/06 11:23:36;;;;;;;14.10;8.70;;;;;;;12.73;62.84;99395.27;223262;1248;140160;-62
2022/11/06 11:28:40;;;;;;;17.20;9.20;;;;;;;12.78;63.07;99389.23;223158;1241;139461;-64
2022/11/06 11:33:52;;;;;;;15.90;9.10;;;;;;;12.82;63.02;99385.83;223079;1257;140523;-69
2022/11/06 11:38:55;;;;;;;19.70;9.80;;;;;;;12.81;62.91;99379.30;223465;1257;140490;-70
2022/11/06 11:44:10;;;;;;;227.70;146.50;;;;;;;12.81;62.75;99379.09;223100;1257;139507;-63
2022/11/06 11:49:39;;;;;;;18.70;10.90;;;;;;;12.86;62.96;99379.26;224003;1247;140872;-65
2022/11/06 11:54:48;;;;;;;18.40;9.50;;;;;;;12.83;62.79;99373.27;223224;1254;139457;-62
2022/11/06 11:59:56;;;;;;;16.50;9.30;;;;;;;12.77;62.38;99375.58;223411;1257;139701;-70
2022/11/06 12:05:02;;;;;;;18.30;8.70;;;;;;;12.73;62.76;99372.10;223301;1248;139817;-65
2022/11/06 12:10:32;;;;;;;14.60;8.50;;;;;;;12.69;62.57;99363.13;223204;1264;140794;-63
2022/11/06 12:15:57;;;;;;;15.60;8.50;;;;;;;12.66;62.76;99360.48;223017;1251;140708;-61
2022/11/06 12:21:12;;;;;;;13.20;7.70;;;;;;;12.69;62.80;99361.53;224040;1247;140107;-67
2022/11/06 12:26:37;;;;;;;15.20;8.70;;;;;;;12.76;62.69;99357.84;223228;1257;139962;-65
2022/11/06 12:31:46;;;;;;;25.60;16.80;;;;;;;12.84;62.75;99352.57;223801;1250;139613;-63
2022/11/06 12:37:11;;;;;;;107.30;62.10;;;;;;;12.89;62.43;99357.92;223239;1255;142337;-65
2022/11/06 12:42:17;;;;;;;24.00;14.80;;;;;;;12.92;62.62;99361.44;223229;1247;140361;-63
2022/11/06 12:48:02;;;;;;;220.70;149.40;;;;;;;12.91;62.70;99359.05;223771;1242;139940;-62
2022/11/06 12:53:10;;;;;;;21.40;12.40;;;;;;;12.89;62.48;99354.35;223269;1246;141533;-66
2022/11/06 12:58:38;;;;;;;17.90;10.10;;;;;;;12.83;62.27;99352.05;223325;1247;140127;-63
2022/11/06 13:03:50;;;;;;;14.60;9.70;;;;;;;12.77;62.44;99355.33;223257;1248;140039;-61
2022/11/06 13:09:06;;;;;;;19.10;11.00;;;;;;;12.64;62.08;99353.66;223247;1256;139530;-63
2022/11/06 13:14:19;;;;;;;14.90;10.20;;;;;;;12.65;62.61;99356.95;223158;1250;140191;-64
2022/11/06 13:19:35;;;;;;;20.30;11.50;;;;;;;12.64;62.36;99356.33;223151;1257;139782;-66
2022/11/06 13:24:45;;;;;;;;;;;;;;;12.60;62.28;99357.70;223143;1256;140079;-64
2022/11/06 13:29:50;;;;;;;20.40;10.30;;;;;;;12.56;62.45;99358.49;223076;1254;127208;-66
2022/11/06 13:34:55;;;;;;;315.20;177.90;;;;;;;12.54;62.33;99353.22;223245;1250;139794;-66
2022/11/06 13:40:05;;;;;;;19.50;9.20;;;;;;;12.60;62.25;99353.95;223281;1255;141112;-64
2022/11/06 13:45:15;;;;;;;12.20;7.90;;;;;;;12.68;62.20;99358.79;223472;1255;140473;-65
2022/11/06 13:50:40;;;;;;;11.40;7.50;;;;;;;12.68;61.93;99361.07;223384;1257;140802;-65
2022/11/06 13:55:52;;;;;;;15.60;9.20;;;;;;;12.74;62.11;99357.95;223142;1256;140143;-66
2022/11/06 14:01:14;;;;;;;14.50;9.20;;;;;;;12.75;61.76;99353.69;223288;1249;139646;-63
2022/11/06 14:06:22;;;;;;;17.10;8.20;;;;;;;12.79;61.91;99347.73;223316;1249;140047;-64
2022/11/06 14:11:45;;;;;;;227.30;152.80;;;;;;;12.73;61.52;99343.84;223092;1249;140170;-65
2022/11/06 14:17:16;;;;;;;24.70;16.40;;;;;;;12.69;61.65;99339.27;223144;1247;140577;-65
2022/11/06 14:22:29;;;;;;;17.20;9.80;;;;;;;12.63;61.28;99336.14;223229;1257;139822;-64
2022/11/06 14:27:35;;;;;;;14.60;8.00;;;;;;;12.51;61.23;99331.02;223129;1250;140036;-68
2022/11/06 14:32:43;;;;;;;12.70;7.30;;;;;;;12.45;61.14;99327.99;223266;1256;139980;-63
2022/11/06 14:37:47;;;;;;;12.20;7.20;;;;;;;12.43;61.30;99326.71;223993;1249;139955;-68
2022/11/06 14:42:50;;;;;;;19.20;7.20;;;;;;;12.41;61.04;99325.45;223251;1257;139403;-67
2022/11/06 14:47:55;;;;;;;14.70;7.80;;;;;;;12.42;61.11;99324.45;223275;1247;140552;-66
2022/11/06 14:53:15;;;;;;;15.40;8.20;;;;;;;12.42;60.88;99319.84;223926;1240;140603;-65
2022/11/06 14:58:26;;;;;;;17.10;7.50;;;;;;;12.44;60.97;99316.20;223185;1248;139704;-66
2022/11/06 15:03:35;;;;;;;149.60;91.20;;;;;;;12.44;60.72;99317.21;223044;1256;139357;-65
2022/11/06 15:08:44;;;;;;;17.00;9.30;;;;;;;12.50;60.74;99309.38;223210;1250;140589;-70
2022/11/06 15:13:47;;;;;;;16.70;7.30;;;;;;;12.47;60.35;99298.89;223323;1249;139463;-70
2022/11/06 15:18:50;;;;;;;12.60;7.10;;;;;;;12.41;60.34;99300.70;223995;1247;139391;-75
2022/11/06 15:24:17;;;;;;;17.10;7.00;;;;;;;12.34;60.34;99300.98;223270;1257;139469;-69
2022/11/06 15:29:40;;;;;;;13.90;6.40;;;;;;;12.28;60.32;99294.63;223963;1247;140217;-63
2022/11/06 15:34:52;;;;;;;14.30;6.50;;;;;;;12.22;60.70;99292.87;223120;1251;139462;-73
2022/11/06 15:39:57;;;;;;;15.20;6.70;;;;;;;12.23;60.59;99293.52;223157;1256;140542;-66
2022/11/06 15:45:20;;;;;;;10.90;5.90;;;;;;;12.29;60.79;99301.85;223394;1256;141281;-71
2022/11/06 15:50:34;;;;;;;9.90;5.30;;;;;;;12.34;61.08;99296.00;223143;1250;140241;-66
2022/11/06 15:55:43;;;;;;;9.80;5.50;;;;;;;12.38;60.82;99297.73;223236;1249;140446;-65
2022/11/06 16:00:46;;;;;;;114.50;75.80;;;;;;;12.38;61.06;99294.84;223171;1255;141091;-71
2022/11/06 16:05:50;;;;;;;25.80;16.70;;;;;;;12.46;61.28;99294.48;223269;1248;140813;-64
2022/11/06 16:10:55;;;;;;;13.40;6.60;;;;;;;12.53;61.07;99294.38;223145;1255;141079;-63
2022/11/06 16:16:03;;;;;;;10.70;5.90;;;;;;;12.51;60.95;99290.11;223817;1246;140460;-67
2022/11/06 16:21:15;;;;;;;14.00;5.50;;;;;;;12.46;60.83;99284.73;223269;1250;139488;-68
2022/11/06 16:26:35;;;;;;;11.30;6.00;;;;;;;12.45;61.05;99275.20;223087;1250;139490;-64
2022/11/06 16:31:38;;;;;;;16.40;6.00;;;;;;;12.44;61.01;99274.34;223279;1247;140122;-63
2022/11/06 16:36:58;;;;;;;12.80;6.00;;;;;;;12.42;61.08;99269.34;223107;1240;139595;-70
2022/11/06 16:42:28;;;;;;;8.70;6.10;;;;;;;12.40;61.18;99266.95;223946;1247;139786;-69
2022/11/06 16:47:31;;;;;;;12.70;6.30;;;;;;;12.39;61.08;99268.13;223168;1257;139113;-68
2022/11/06 16:52:37;;;;;;;10.90;6.00;;;;;;;12.37;61.10;99263.80;223122;1247;139759;-68
2022/11/06 16:57:41;;;;;;;15.50;6.80;;;;;;;12.36;61.15;99268.30;223205;1256;139285;-70
2022/11/06 17:02:53;;;;;;;14.10;6.30;;;;;;;12.38;61.24;99259.24;223254;1255;140000;-72
2022/11/06 17:08:16;;;;;;;13.90;6.50;;;;;;;12.44;61.27;99255.33;223906;1241;140052;-69
2022/11/06 17:13:30;;;;;;;12.30;6.60;;;;;;;12.44;61.20;99257.61;223189;1256;140034;-66
2022/11/06 17:18:36;;;;;;;12.40;7.10;;;;;;;12.44;61.25;99260.11;223315;1256;139708;-75
2022/11/06 17:23:39;;;;;;;12.50;7.30;;;;;;;12.44;61.31;99257.64;223080;1257;140245;-63
2022/11/06 17:28:42;;;;;;;13.40;6.70;;;;;;;12.43;61.45;99252.55;223125;1256;139631;-69
2022/11/06 17:33:46;;;;;;;17.70;6.40;;;;;;;12.42;61.50;99259.52;223120;1256;139348;-62
2022/11/06 17:38:49;;;;;;;14.90;7.50;;;;;;;12.41;61.11;99259.05;223158;1250;140035;-68
2022/11/06 17:43:52;;;;;;;14.70;8.00;;;;;;;12.37;61.47;99259.33;223087;1256;139367;-67
2022/11/06 17:48:55;;;;;;;45.50;36.20;;;;;;;12.35;61.64;99257.89;223041;1256;139530;-66
2022/11/06 17:53:59;;;;;;;51.80;31.50;;;;;;;12.38;61.87;99253.45;223799;1243;140298;-72
2022/11/06 17:59:02;;;;;;;15.30;8.80;;;;;;;12.43;61.81;99249.49;223286;1257;139761;-70
2022/11/06 18:04:06;;;;;;;17.60;8.80;;;;;;;12.47;62.00;99245.88;223077;1257;140126;-68
2022/11/06 18:09:09;;;;;;;18.40;9.60;;;;;;;12.50;61.90;99248.34;223247;1247;139687;-64
2022/11/06 18:14:13;;;;;;;15.80;8.80;;;;;;;12.49;62.14;99251.41;223195;1250;141214;-65
2022/11/06 18:19:20;;;;;;;17.10;10.10;;;;;;;12.51;62.08;99246.67;223201;1253;139803;-69
2022/11/06 18:24:23;;;;;;;18.50;11.00;;;;;;;12.49;62.31;99240.88;223144;1256;139908;-66
2022/11/06 18:29:26;;;;;;;21.00;11.90;;;;;;;12.53;62.13;99245.46;223237;1256;139679;-68
2022/11/06 18:34:29;;;;;;;29.00;14.00;;;;;;;12.54;62.15;99241.27;223288;1257;139680;-65
2022/11/06 18:39:32;;;;;;;24.90;14.00;;;;;;;12.57;62.37;99236.67;223110;1247;141317;-67
2022/11/06 18:44:40;;;;;;;27.70;15.10;;;;;;;12.56;62.43;99243.13;223446;1247;139605;-63
2022/11/06 18:49:43;;;;;;;110.00;73.70;;;;;;;12.55;62.34;99241.06;222945;1250;140514;-65
2022/11/06 18:54:46;;;;;;;26.80;14.80;;;;;;;12.49;62.60;99236.12;223213;1248;139672;-66
2022/11/06 18:59:49;;;;;;;31.80;15.90;;;;;;;12.48;62.79;99231.90;223196;1257;140945;-66
2022/11/06 19:04:52;;;;;;;256.20;160.50;;;;;;;12.55;62.83;99226.08;223197;1250;141185;-66
2022/11/06 19:09:55;;;;;;;26.80;14.30;;;;;;;12.63;63.30;99222.54;223161;1255;140437;-62
2022/11/06 19:14:58;;;;;;;23.50;13.80;;;;;;;12.65;62.86;99216.52;223326;1248;139955;-63
2022/11/06 19:20:02;;;;;;;27.70;16.10;;;;;;;12.60;62.83;99216.33;223742;1247;140849;-63
2022/11/06 19:25:05;;;;;;;;;;;;;;;12.59;63.05;99214.13;223139;1257;139997;-62
2022/11/06 19:30:09;;;;;;;30.90;15.70;;;;;;;12.50;63.11;99210.58;223470;1263;125549;-63
2022/11/06 19:35:14;;;;;;;23.50;15.80;;;;;;;12.42;63.13;99208.61;223339;1256;140596;-62
2022/11/06 19:40:17;;;;;;;27.20;16.50;;;;;;;12.39;63.26;99207.94;223385;1247;140134;-62
2022/11/06 19:45:20;;;;;;;28.50;16.00;;;;;;;12.37;63.25;99204.92;223460;1249;140518;-63
2022/11/06 19:50:23;;;;;;;28.10;17.90;;;;;;;12.37;63.66;99208.45;223387;1257;139873;-64
2022/11/06 19:55:46;;;;;;;32.50;19.10;;;;;;;12.38;63.69;99205.39;223335;1257;139985;-65
2022/11/06 20:00:51;;;;;;;29.70;18.50;;;;;;;12.38;63.85;99209.77;223399;1257;139641;-64
2022/11/06 20:05:53;;;;;;;30.50;19.30;;;;;;;12.38;63.86;99205.36;223363;1257;140881;-62
2022/11/06 20:11:26;;;;;;;29.70;18.30;;;;;;;12.39;64.15;99197.80;223255;1250;139654;-66
2022/11/06 20:16:31;;;;;;;25.40;17.10;;;;;;;12.38;63.98;99197.20;223397;1248;141584;-62
2022/11/06 20:21:34;;;;;;;24.90;16.70;;;;;;;12.35;64.09;99197.04;224139;1242;139518;-64
2022/11/06 20:26:38;;;;;;;26.20;15.70;;;;;;;12.33;64.22;99191.48;223421;1256;237129;-64
2022/11/06 20:31:41;;;;;;;28.00;17.00;;;;;;;12.36;64.17;99188.79;224131;1250;140285;-65
2022/11/06 20:36:44;;;;;;;26.20;16.90;;;;;;;12.40;64.12;99186.38;223341;1249;139953;-63
2022/11/06 20:41:47;;;;;;;30.10;17.70;;;;;;;12.40;64.23;99189.57;223280;1247;139792;-60
2022/11/06 20:46:50;;;;;;;33.00;18.30;;;;;;;12.37;64.21;99181.61;223461;1257;139326;-63
2022/11/06 20:51:53;;;;;;;30.60;17.60;;;;;;;12.32;64.33;99174.98;223421;1253;139552;-64
2022/11/06 20:57:15;;;;;;;24.80;17.20;;;;;;;12.26;64.46;99167.23;224270;1240;140598;-66
2022/11/06 21:02:18;;;;;;;28.20;19.00;;;;;;;12.19;64.35;99166.41;223378;1263;139504;-63
2022/11/06 21:07:21;;;;;;;30.60;18.40;;;;;;;12.14;64.51;99163.37;224153;1253;139394;-66
2022/11/06 21:12:24;;;;;;;30.60;18.00;;;;;;;12.09;64.35;99161.23;223366;1254;140683;-62
2022/11/06 21:17:28;;;;;;;28.80;18.00;;;;;;;12.09;64.65;99168.85;224184;1246;140130;-64
2022/11/06 21:22:31;;;;;;;30.00;18.10;;;;;;;12.09;64.65;99167.98;223429;1257;140169;-63
2022/11/06 21:27:33;;;;;;;28.20;16.60;;;;;;;12.11;64.79;99165.38;223384;1257;139969;-61
2022/11/06 21:32:36;;;;;;;29.90;17.80;;;;;;;12.11;65.11;99166.09;223528;1257;139204;-63
2022/11/06 21:37:40;;;;;;;27.90;18.40;;;;;;;12.09;64.93;99164.95;223404;1253;139943;-62
2022/11/06 21:42:43;;;;;;;26.80;17.50;;;;;;;12.05;64.80;99166.66;224102;1250;139815;-62
2022/11/06 21:47:46;;;;;;;31.00;18.70;;;;;;;11.98;65.23;99165.50;223219;1248;139578;-62
2022/11/06 21:58:11;;;;;;;34.30;18.80;;;;;;;12.00;65.43;99162.17;223431;1257;140242;-63
2022/11/06 22:03:15;;;;;;;29.60;18.60;;;;;;;12.05;65.48;99157.52;223518;1258;139864;-64
2022/11/06 22:08:18;;;;;;;29.50;18.90;;;;;;;12.07;65.75;99153.50;223457;1253;139664;-66
2022/11/06 22:13:21;;;;;;;31.00;19.00;;;;;;;12.05;65.73;99153.98;223364;1248;139099;-64
2022/11/06 22:18:24;;;;;;;29.20;18.40;;;;;;;12.05;65.58;99151.51;223280;1256;140338;-65
2022/11/06 22:23:27;;;;;;;30.40;17.80;;;;;;;12.03;65.73;99149.14;223284;1257;139828;-64
2022/11/06 22:28:31;;;;;;;29.80;19.20;;;;;;;12.00;65.71;99145.23;223233;1248;141137;-65
2022/11/06 22:33:34;;;;;;;30.50;19.40;;;;;;;11.97;65.74;99147.42;223283;1257;142819;-64
2022/11/06 22:38:39;;;;;;;27.10;17.60;;;;;;;11.97;65.71;99146.58;223241;1263;140054;-66
2022/11/06 22:43:43;;;;;;;31.60;17.70;;;;;;;12.00;65.98;99141.70;222999;1250;142810;-67
2022/11/06 22:48:47;;;;;;;31.60;19.50;;;;;;;12.04;65.80;99138.23;223154;1254;139834;-65
2022/11/06 22:53:50;;;;;;;31.60;18.80;;;;;;;12.06;65.99;99140.63;223190;1257;140330;-63
2022/11/06 22:58:56;;;;;;;27.80;17.90;;;;;;;12.03;66.00;99138.33;223152;1250;140664;-65
2022/11/06 23:04:00;;;;;;;33.10;19.80;;;;;;;12.00;66.15;99135.31;223183;1258;139776;-64
2022/11/06 23:09:03;;;;;;;33.80;21.40;;;;;;;12.00;66.15;99137.09;223279;1257;140546;-63
2022/11/06 23:14:06;;;;;;;37.00;22.40;;;;;;;11.99;66.39;99127.88;223174;1260;140137;-66
2022/11/06 23:19:14;;;;;;;31.80;21.00;;;;;;;11.99;66.08;99113.70;223984;1250;140906;-68
2022/11/06 23:24:21;;;;;;;34.70;20.80;;;;;;;12.01;66.24;99113.52;223303;1256;140486;-64
2022/11/06 23:29:24;;;;;;;43.90;23.80;;;;;;;12.04;66.27;99111.36;223297;1254;139788;-66